createdAt,value
2018-07-28T00:01:14.957Z,12.27
2018-07-28T00:03:43.634Z,12.53
2018-07-28T00:06:12.336Z,13.97
2018-07-28T00:08:41.007Z,18.13
2018-07-28T00:11:09.672Z,13.83
2018-07-28T00:13:38.669Z,11.80
2018-07-28T00:16:07.454Z,17.50
2018-07-28T00:18:36.099Z,14.13
2018-07-28T00:21:04.806Z,11.60
2018-07-28T00:23:33.463Z,15.00
2018-07-28T00:26:07.360Z,15.07
2018-07-28T00:28:36.027Z,12.20
2018-07-28T00:31:04.742Z,13.57
2018-07-28T00:33:33.391Z,14.23
2018-07-28T00:36:02.069Z,11.40
2018-07-28T00:38:30.712Z,17.47
2018-07-28T00:40:59.448Z,16.97
2018-07-28T00:43:28.116Z,13.80
2018-07-28T00:45:56.820Z,12.53
2018-07-28T00:48:25.452Z,14.90
2018-07-28T00:50:54.248Z,12.90
2018-07-28T00:53:22.887Z,14.73
2018-07-28T00:55:51.578Z,13.13
2018-07-28T00:58:20.231Z,14.63
2018-07-28T01:00:48.931Z,12.10
2018-07-28T01:03:17.589Z,12.70
2018-07-28T01:05:46.256Z,12.70
2018-07-28T01:08:14.934Z,13.03
2018-07-28T01:10:43.675Z,14.57
2018-07-28T01:13:12.328Z,14.20
2018-07-28T01:15:41.012Z,12.40
2018-07-28T01:18:09.692Z,16.33
2018-07-28T01:20:38.386Z,16.77
2018-07-28T01:23:07.084Z,14.03
2018-07-28T01:25:35.778Z,15.20
2018-07-28T01:28:04.434Z,12.43
2018-07-28T01:30:33.405Z,22.10
2018-07-28T01:33:02.163Z,14.70
2018-07-28T01:35:30.876Z,14.53
2018-07-28T01:37:59.528Z,13.23
2018-07-28T01:40:28.169Z,13.40
2018-07-28T01:42:56.851Z,15.63
2018-07-28T01:45:25.509Z,14.60
2018-07-28T01:47:54.164Z,13.83
2018-07-28T01:50:22.809Z,13.97
2018-07-28T01:52:51.544Z,13.47
2018-07-28T01:55:20.194Z,13.63
2018-07-28T01:57:48.878Z,17.00
2018-07-28T02:00:17.558Z,14.90
2018-07-28T02:02:46.211Z,18.47
2018-07-28T02:05:14.882Z,13.93
2018-07-28T02:07:43.624Z,16.60
2018-07-28T02:10:12.326Z,20.43
2018-07-28T02:12:41.037Z,17.97
2018-07-28T02:15:09.795Z,14.30
2018-07-28T02:17:38.487Z,13.33
2018-07-28T02:20:07.927Z,18.17
2018-07-28T02:22:36.601Z,13.80
2018-07-28T02:25:07.408Z,14.70
2018-07-28T02:27:36.183Z,17.13
2018-07-28T02:30:05.475Z,16.23
2018-07-28T02:32:34.271Z,15.60
2018-07-28T02:35:02.964Z,14.90
2018-07-28T02:37:31.660Z,20.00
2018-07-28T02:40:00.334Z,18.30
2018-07-28T02:42:28.999Z,18.77
2018-07-28T02:44:57.679Z,16.83
2018-07-28T02:47:26.367Z,19.00
2018-07-28T02:49:55.039Z,15.77
2018-07-28T02:52:23.717Z,16.30
2018-07-28T02:54:52.394Z,15.77
2018-07-28T02:57:21.085Z,15.87
2018-07-28T02:59:49.741Z,18.70
2018-07-28T03:02:18.427Z,23.23
2018-07-28T03:04:47.082Z,18.37
2018-07-28T03:07:15.784Z,19.77
2018-07-28T03:09:44.427Z,16.03
2018-07-28T03:12:13.124Z,18.27
2018-07-28T03:14:41.780Z,21.20
2018-07-28T03:17:10.469Z,17.93
2018-07-28T03:19:39.232Z,22.93
2018-07-28T03:22:08.074Z,19.67
2018-07-28T03:24:36.744Z,15.03
2018-07-28T03:27:05.936Z,17.87
2018-07-28T03:29:34.884Z,17.83
2018-07-28T03:32:03.645Z,16.77
2018-07-28T03:34:32.291Z,16.83
2018-07-28T03:37:00.964Z,16.57
2018-07-28T03:39:29.622Z,17.67
2018-07-28T03:41:58.294Z,18.33
2018-07-28T03:44:26.935Z,18.07
2018-07-28T03:46:55.611Z,18.00
2018-07-28T03:49:24.371Z,18.63
2018-07-28T03:51:53.006Z,18.63
2018-07-28T03:54:21.698Z,17.03
2018-07-28T03:56:50.359Z,18.07
2018-07-28T03:59:19.029Z,17.43
2018-07-28T04:01:47.712Z,28.23
2018-07-28T04:04:16.408Z,18.70
2018-07-28T04:06:45.069Z,20.87
2018-07-28T04:09:13.770Z,18.33
2018-07-28T04:11:42.442Z,17.70
2018-07-28T04:14:11.105Z,17.63
2018-07-28T04:16:39.743Z,18.13
2018-07-28T04:19:08.439Z,16.77
2018-07-28T04:21:37.104Z,18.57
2018-07-28T04:24:05.774Z,16.17
2018-07-28T04:26:34.437Z,20.37
2018-07-28T04:29:03.109Z,21.63
2018-07-28T04:31:31.778Z,19.70
2018-07-28T04:34:00.483Z,22.70
2018-07-28T04:36:29.144Z,18.27
2018-07-28T04:38:57.803Z,16.63
2018-07-28T04:41:26.482Z,21.23
2018-07-28T04:43:55.168Z,21.27
2018-07-28T04:46:23.840Z,18.33
2018-07-28T04:48:52.546Z,17.27
2018-07-28T04:51:21.216Z,22.17
2018-07-28T04:53:49.891Z,19.83
2018-07-28T04:56:18.527Z,19.03
2018-07-28T04:58:47.206Z,15.70
2018-07-28T05:01:15.841Z,16.00
2018-07-28T05:03:44.511Z,22.00
2018-07-28T05:06:13.157Z,17.57
2018-07-28T05:08:41.847Z,18.20
2018-07-28T05:11:10.543Z,19.53
2018-07-28T05:13:39.195Z,17.43
2018-07-28T05:16:07.835Z,20.30
2018-07-28T05:18:36.496Z,16.43
2018-07-28T05:21:05.301Z,16.00
2018-07-28T05:23:33.962Z,17.20
2018-07-28T05:26:02.622Z,19.23
2018-07-28T05:28:31.313Z,16.83
2018-07-28T05:30:59.964Z,14.93
2018-07-28T05:33:28.627Z,14.50
2018-07-28T05:35:57.380Z,15.90
2018-07-28T05:38:26.095Z,15.47
2018-07-28T05:40:54.724Z,12.80
2018-07-28T05:43:23.364Z,13.57
2018-07-28T05:45:52.013Z,11.87
2018-07-28T05:48:20.663Z,13.40
2018-07-28T05:50:49.313Z,12.27
2018-07-28T05:53:17.977Z,12.20
2018-07-28T05:55:46.631Z,11.90
2018-07-28T05:58:15.260Z,12.03
2018-07-28T06:00:43.940Z,12.10
2018-07-28T06:03:12.593Z,13.20
2018-07-28T06:05:41.264Z,18.67
2018-07-28T06:08:09.953Z,14.63
2018-07-28T06:10:38.679Z,13.40
2018-07-28T06:13:07.367Z,13.73
2018-07-28T06:15:36.064Z,12.77
2018-07-28T06:18:04.772Z,11.83
2018-07-28T06:20:33.474Z,12.67
2018-07-28T06:23:02.116Z,11.53
2018-07-28T06:25:30.791Z,13.10
2018-07-28T06:27:59.432Z,13.50
2018-07-28T06:30:28.171Z,14.50
2018-07-28T06:32:56.819Z,12.20
2018-07-28T06:35:25.474Z,11.40
2018-07-28T06:37:54.125Z,13.07
2018-07-28T06:40:22.829Z,11.97
2018-07-28T06:42:51.467Z,13.40
2018-07-28T06:45:20.133Z,15.07
2018-07-28T06:47:48.776Z,15.43
2018-07-28T06:50:17.462Z,13.83
2018-07-28T06:52:46.107Z,10.80
2018-07-28T06:55:14.780Z,11.40
2018-07-28T06:57:43.442Z,9.87
2018-07-28T07:00:12.196Z,12.33
2018-07-28T07:02:40.861Z,10.90
2018-07-28T07:05:09.786Z,9.87
2018-07-28T07:07:38.468Z,9.87
2018-07-28T07:10:07.572Z,10.00
2018-07-28T07:12:36.231Z,11.47
2018-07-28T07:15:05.357Z,12.63
2018-07-28T07:17:34.038Z,10.73
2018-07-28T07:20:02.717Z,10.43
2018-07-28T07:22:31.610Z,11.20
2018-07-28T07:25:00.279Z,11.13
2018-07-28T07:27:28.940Z,15.43
2018-07-28T07:29:57.621Z,10.43
2018-07-28T07:32:30.300Z,10.53
2018-07-28T07:34:59.062Z,11.50
2018-07-28T07:37:27.704Z,10.97
2018-07-28T07:39:56.370Z,12.03
2018-07-28T07:42:25.016Z,9.80
2018-07-28T07:44:53.756Z,11.87
2018-07-28T07:47:22.477Z,10.53
2018-07-28T07:49:51.113Z,10.00
2018-07-28T07:52:19.638Z,10.03
2018-07-28T07:54:48.171Z,10.50
2018-07-28T07:57:16.664Z,9.70
2018-07-28T07:59:45.223Z,9.03
2018-07-28T08:02:13.787Z,12.53
2018-07-28T08:04:42.374Z,10.60
2018-07-28T08:07:10.922Z,9.70
2018-07-28T08:09:39.446Z,9.83
2018-07-28T08:12:08.158Z,14.10
2018-07-28T08:14:36.700Z,9.50
2018-07-28T08:17:05.494Z,9.50
2018-07-28T08:19:34.032Z,9.83
2018-07-28T08:22:02.577Z,11.20
2018-07-28T08:24:31.085Z,9.77
2018-07-28T08:29:18.014Z,12.20
2018-07-28T08:31:46.559Z,8.70
2018-07-28T08:34:15.076Z,9.67
2018-07-28T08:36:43.634Z,9.53
2018-07-28T08:39:14.744Z,8.20
2018-07-28T08:41:44.190Z,9.20
2018-07-28T08:44:13.316Z,9.67
2018-07-28T08:46:41.857Z,9.20
2018-07-28T08:49:10.390Z,10.20
2018-07-28T08:51:38.985Z,7.80
2018-07-28T08:54:07.584Z,7.93
2018-07-28T08:56:36.132Z,7.97
2018-07-28T08:59:04.687Z,8.27
2018-07-28T09:01:33.215Z,7.90
2018-07-28T09:04:01.744Z,9.90
2018-07-28T09:06:30.294Z,7.70
2018-07-28T09:08:58.825Z,7.43
2018-07-28T09:11:27.376Z,10.03
2018-07-28T09:13:55.886Z,6.37
2018-07-28T09:16:24.495Z,6.80
2018-07-28T09:18:53.092Z,7.60
2018-07-28T09:21:21.653Z,7.87
2018-07-28T09:23:50.186Z,8.00
2018-07-28T09:26:18.731Z,7.40
2018-07-28T09:28:47.250Z,7.97
2018-07-28T09:31:15.796Z,7.23
2018-07-28T09:33:44.316Z,7.50
2018-07-28T09:36:12.884Z,8.80
2018-07-28T09:38:41.424Z,7.10
2018-07-28T09:41:09.998Z,7.00
2018-07-28T09:43:38.551Z,7.40
2018-07-28T09:46:07.224Z,7.10
2018-07-28T09:48:35.759Z,6.10
2018-07-28T09:51:04.332Z,6.67
2018-07-28T09:53:32.872Z,9.97
2018-07-28T09:56:01.425Z,7.03
2018-07-28T09:58:29.955Z,7.07
2018-07-28T10:00:59.440Z,6.23
2018-07-28T10:03:28.719Z,6.20
2018-07-28T10:05:57.719Z,8.20
2018-07-28T10:08:26.273Z,6.27
2018-07-28T10:10:54.804Z,5.83
2018-07-28T10:13:23.358Z,5.70
2018-07-28T10:15:51.901Z,6.27
2018-07-28T10:18:20.468Z,6.33
2018-07-28T10:20:48.982Z,6.80
2018-07-28T10:23:17.541Z,7.50
2018-07-28T10:25:46.057Z,5.60
2018-07-28T10:28:14.602Z,10.07
2018-07-28T10:30:43.207Z,5.13
2018-07-28T10:33:11.736Z,6.03
2018-07-28T10:35:40.259Z,5.33
2018-07-28T10:38:08.817Z,5.80
2018-07-28T10:40:37.345Z,5.30
2018-07-28T10:43:06.087Z,9.40
2018-07-28T10:45:34.659Z,6.67
2018-07-28T10:48:03.179Z,5.60
2018-07-28T10:50:31.721Z,4.90
2018-07-28T10:53:00.235Z,5.63
2018-07-28T10:55:28.793Z,5.00
2018-07-28T10:57:57.360Z,5.67
2018-07-28T11:00:25.904Z,4.87
2018-07-28T11:02:54.454Z,5.70
2018-07-28T11:05:22.979Z,4.80
2018-07-28T11:07:51.537Z,6.00
2018-07-28T11:10:20.057Z,5.33
2018-07-28T11:12:48.622Z,5.20
2018-07-28T11:15:17.163Z,5.67
2018-07-28T11:17:45.750Z,8.90
2018-07-28T11:20:14.268Z,5.20
2018-07-28T11:22:42.954Z,16.73
2018-07-28T11:25:11.376Z,5.13
2018-07-28T11:27:40.039Z,17.20
2018-07-28T11:30:09.016Z,5.47
2018-07-28T11:32:48.792Z,6.67
2018-07-28T11:35:28.537Z,5.90
2018-07-28T11:38:19.132Z,8.50
2018-07-28T11:42:55.047Z,6.00
2018-07-28T11:45:23.618Z,5.97
2018-07-28T11:47:52.180Z,5.23
2018-07-28T11:50:20.687Z,5.40
2018-07-28T11:52:49.212Z,5.10
2018-07-28T11:55:17.731Z,5.50
2018-07-28T11:57:46.276Z,7.37
2018-07-28T12:00:14.810Z,6.23
2018-07-28T12:02:43.352Z,6.07
2018-07-28T12:05:11.859Z,9.70
2018-07-28T12:07:40.438Z,5.40
2018-07-28T12:10:09.537Z,5.50
2018-07-28T12:12:38.328Z,5.47
2018-07-28T12:15:07.490Z,5.50
2018-07-28T12:17:36.016Z,6.10
2018-07-28T12:20:04.815Z,6.17
2018-07-28T12:22:33.345Z,5.50
2018-07-28T12:25:01.871Z,5.80
2018-07-28T12:27:30.394Z,6.10
2018-07-28T12:29:58.931Z,5.57
2018-07-28T12:32:27.456Z,4.77
2018-07-28T12:34:56.032Z,5.00
2018-07-28T12:37:24.539Z,4.70
2018-07-28T12:39:53.073Z,4.90
2018-07-28T12:42:21.611Z,5.67
2018-07-28T12:44:50.145Z,6.00
2018-07-28T12:47:18.701Z,5.23
2018-07-28T12:49:47.232Z,5.20
2018-07-28T12:52:15.785Z,5.23
2018-07-28T12:54:44.303Z,4.93
2018-07-28T12:57:12.835Z,4.97
2018-07-28T12:59:41.388Z,5.23
2018-07-28T13:02:09.912Z,5.40
2018-07-28T13:04:38.460Z,5.07
2018-07-28T13:07:07.086Z,7.23
2018-07-28T13:09:35.649Z,5.30
2018-07-28T13:12:04.161Z,5.17
2018-07-28T13:14:32.711Z,4.70
2018-07-28T13:17:01.315Z,5.27
2018-07-28T13:19:29.859Z,4.70
2018-07-28T13:21:58.411Z,4.60
2018-07-28T13:24:26.955Z,4.97
2018-07-28T13:26:55.465Z,4.70
2018-07-28T13:29:23.993Z,5.07
2018-07-28T13:31:52.517Z,5.10
2018-07-28T13:34:21.050Z,4.70
2018-07-28T13:36:49.556Z,5.00
2018-07-28T13:39:18.101Z,4.63
2018-07-28T13:41:46.623Z,5.37
2018-07-28T13:44:15.181Z,5.50
2018-07-28T13:46:43.707Z,5.73
2018-07-28T13:49:12.257Z,4.90
2018-07-28T13:51:40.809Z,5.47
2018-07-28T13:54:09.368Z,5.03
2018-07-28T13:56:37.976Z,5.17
2018-07-28T13:59:06.584Z,4.60
2018-07-28T14:01:35.179Z,5.60
2018-07-28T14:04:04.040Z,5.03
2018-07-28T14:06:32.583Z,4.80
2018-07-28T14:09:01.140Z,5.13
2018-07-28T14:11:29.679Z,5.37
2018-07-28T14:13:58.218Z,5.17
2018-07-28T14:16:26.748Z,5.03
2018-07-28T14:18:55.381Z,5.33
2018-07-28T14:21:23.884Z,5.50
2018-07-28T14:23:52.430Z,5.97
2018-07-28T14:26:20.976Z,5.37
2018-07-28T14:28:49.492Z,5.47
2018-07-28T14:31:18.018Z,5.47
2018-07-28T14:33:46.526Z,5.60
2018-07-28T14:36:15.076Z,5.23
2018-07-28T14:38:43.606Z,10.77
2018-07-28T14:41:12.167Z,20.80
2018-07-28T14:43:40.707Z,22.17
2018-07-28T14:46:09.298Z,26.80
2018-07-28T14:48:37.910Z,66.03
2018-07-28T14:51:06.825Z,54.83
2018-07-28T14:53:35.439Z,57.53
2018-07-28T14:56:04.117Z,22.17
2018-07-28T14:58:32.709Z,15.17
2018-07-28T15:01:01.332Z,18.83
2018-07-28T15:03:29.865Z,19.30
2018-07-28T15:05:58.411Z,21.07
2018-07-28T15:08:26.955Z,17.33
2018-07-28T15:10:56.001Z,20.93
2018-07-28T15:13:24.603Z,14.30
2018-07-28T15:15:53.154Z,13.83
2018-07-28T15:18:21.698Z,19.70
2018-07-28T15:20:50.284Z,14.83
2018-07-28T15:23:18.889Z,13.20
2018-07-28T15:25:47.460Z,16.93
2018-07-28T15:28:16.013Z,19.40
2018-07-28T15:30:44.572Z,13.57
2018-07-28T15:33:13.121Z,19.47
2018-07-28T15:35:41.679Z,15.67
2018-07-28T15:38:10.210Z,15.27
2018-07-28T15:40:38.900Z,19.83
2018-07-28T15:43:07.465Z,18.07
2018-07-28T15:45:36.199Z,16.73
2018-07-28T15:48:04.846Z,22.60
2018-07-28T15:50:33.378Z,26.47
2018-07-28T15:53:01.944Z,17.03
2018-07-28T15:55:30.505Z,21.53
2018-07-28T15:57:59.095Z,16.63
2018-07-28T16:00:27.710Z,15.17
2018-07-28T16:02:56.270Z,18.60
2018-07-28T16:05:24.815Z,18.63
2018-07-28T16:07:53.385Z,20.80
2018-07-28T16:10:21.928Z,27.77
2018-07-28T16:12:50.498Z,27.23
2018-07-28T16:15:19.047Z,21.60
2018-07-28T16:17:47.665Z,20.63
2018-07-28T16:20:16.282Z,20.47
2018-07-28T16:22:44.781Z,20.80
2018-07-28T16:25:13.314Z,24.80
2018-07-28T16:27:41.907Z,22.40
2018-07-28T16:30:10.695Z,27.33
2018-07-28T16:32:39.328Z,21.83
2018-07-28T16:35:08.147Z,22.53
2018-07-28T16:37:36.908Z,21.13
2018-07-28T16:40:05.749Z,20.47
2018-07-28T16:42:34.353Z,18.07
2018-07-28T16:45:02.884Z,18.60
2018-07-28T16:47:31.441Z,18.93
2018-07-28T16:49:59.970Z,23.10
2018-07-28T16:52:28.510Z,22.03
2018-07-28T16:54:57.034Z,22.10
2018-07-28T16:57:25.670Z,21.30
2018-07-28T16:59:54.211Z,21.50
2018-07-28T17:02:22.837Z,22.97
2018-07-28T17:04:51.482Z,25.63
2018-07-28T17:07:20.027Z,22.57
2018-07-28T17:09:48.563Z,23.60
2018-07-28T17:12:17.127Z,21.87
2018-07-28T17:14:45.657Z,23.30
2018-07-28T17:17:14.201Z,21.93
2018-07-28T17:19:42.728Z,26.20
2018-07-28T17:22:11.286Z,21.93
2018-07-28T17:24:39.799Z,21.57
2018-07-28T17:27:08.340Z,19.67
2018-07-28T17:29:36.863Z,21.23
2018-07-28T17:32:05.441Z,23.77
2018-07-28T17:34:33.968Z,20.50
2018-07-28T17:37:02.564Z,28.20
2018-07-28T17:39:31.105Z,20.37
2018-07-28T17:41:59.670Z,23.53
2018-07-28T17:44:28.179Z,24.40
2018-07-28T17:46:56.742Z,21.83
2018-07-28T17:49:25.276Z,21.47
2018-07-28T17:51:53.832Z,20.40
2018-07-28T17:54:22.355Z,20.57
2018-07-28T17:56:50.922Z,20.83
2018-07-28T17:59:19.451Z,24.00
2018-07-28T18:01:48.016Z,24.30
2018-07-28T18:04:16.604Z,22.40
2018-07-28T18:06:45.189Z,24.43
2018-07-28T18:09:13.758Z,25.47
2018-07-28T18:11:42.307Z,27.03
2018-07-28T18:14:10.854Z,20.83
2018-07-28T18:16:39.379Z,22.97
2018-07-28T18:19:07.920Z,20.57
2018-07-28T18:21:36.475Z,21.60
2018-07-28T18:24:05.039Z,21.30
2018-07-28T18:26:33.594Z,21.50
2018-07-28T18:29:02.159Z,21.77
2018-07-28T18:31:30.696Z,23.47
2018-07-28T18:33:59.249Z,25.73
2018-07-28T18:36:27.809Z,25.33
2018-07-28T18:38:56.385Z,24.67
2018-07-28T18:41:24.941Z,24.10
2018-07-28T18:43:53.496Z,25.50
2018-07-28T18:46:22.038Z,26.33
2018-07-28T18:48:50.634Z,27.53
2018-07-28T18:51:19.178Z,26.57
2018-07-28T18:53:47.748Z,38.10
2018-07-28T18:56:16.337Z,40.67
2018-07-28T18:58:44.887Z,45.73
2018-07-28T19:01:13.419Z,37.17
2018-07-28T19:03:41.972Z,37.87
2018-07-28T19:06:10.507Z,32.73
2018-07-28T19:08:39.106Z,22.80
2018-07-28T19:11:08.078Z,26.90
2018-07-28T19:13:40.862Z,28.20
2018-07-28T19:16:09.444Z,24.00
2018-07-28T19:19:42.898Z,25.80
2018-07-28T19:22:16.542Z,27.63
2018-07-28T19:24:45.109Z,21.80
2018-07-28T19:27:13.645Z,21.63
2018-07-28T19:29:43.685Z,22.33
2018-07-28T19:32:12.405Z,24.30
2018-07-28T19:34:41.352Z,22.77
2018-07-28T19:37:15.071Z,20.10
2018-07-28T19:39:43.638Z,19.93
2018-07-28T19:42:17.352Z,18.20
2018-07-28T19:44:45.903Z,19.17
2018-07-28T19:47:14.466Z,22.23
2018-07-28T19:49:43.027Z,21.40
2018-07-28T19:52:11.548Z,20.10
2018-07-28T19:54:40.101Z,22.03
2018-07-28T19:57:08.636Z,25.40
2018-07-28T19:59:37.180Z,22.80
2018-07-28T20:02:05.745Z,32.20
2018-07-28T20:04:34.300Z,21.70
2018-07-28T20:07:02.881Z,20.27
2018-07-28T20:09:31.462Z,22.10
2018-07-28T20:12:00.011Z,22.50
2018-07-28T20:14:28.585Z,21.83
2018-07-28T20:16:57.165Z,29.57
2018-07-28T20:19:25.746Z,28.33
2018-07-28T20:21:54.306Z,24.17
2018-07-28T20:24:22.864Z,23.90
2018-07-28T20:26:51.412Z,23.77
2018-07-28T20:29:19.966Z,25.20
2018-07-28T20:31:48.531Z,23.73
2018-07-28T20:34:17.145Z,32.87
2018-07-28T20:36:45.691Z,27.33
2018-07-28T20:39:14.318Z,24.50
2018-07-28T20:41:42.872Z,29.63
2018-07-28T20:44:11.439Z,23.77
2018-07-28T20:46:40.025Z,24.80
2018-07-28T20:49:08.598Z,23.13
2018-07-28T20:51:37.159Z,29.30
2018-07-28T20:54:05.722Z,23.87
2018-07-28T20:56:34.291Z,24.93
2018-07-28T20:59:02.845Z,37.50
2018-07-28T21:01:31.365Z,32.73
2018-07-28T21:03:59.933Z,31.07
2018-07-28T21:06:28.474Z,35.27
2018-07-28T21:08:57.017Z,27.27
2018-07-28T21:11:25.696Z,29.93
2018-07-28T21:13:54.360Z,24.00
2018-07-28T21:16:23.052Z,28.80
2018-07-28T21:18:51.737Z,30.20
2018-07-28T21:21:20.417Z,25.77
2018-07-28T21:23:49.072Z,29.63
2018-07-28T21:26:17.778Z,32.33
2018-07-28T21:28:46.442Z,31.47
2018-07-28T21:31:15.132Z,27.27
2018-07-28T21:33:43.878Z,29.53
2018-07-28T21:36:12.519Z,31.30
2018-07-28T21:38:41.206Z,30.30
2018-07-28T21:41:09.973Z,39.23
2018-07-28T21:43:38.717Z,33.57
2018-07-28T21:46:07.466Z,36.37
2018-07-28T21:48:36.133Z,33.87
2018-07-28T21:51:04.832Z,33.97
2018-07-28T21:53:33.491Z,32.63
2018-07-28T21:56:02.176Z,31.10
2018-07-28T21:58:30.831Z,31.27
2018-07-28T22:01:16.023Z,29.70
2018-07-28T22:03:44.695Z,31.10
2018-07-28T22:06:13.400Z,34.20
2018-07-28T22:08:42.208Z,31.13
2018-07-28T22:11:10.925Z,33.87
2018-07-28T22:13:39.590Z,34.10
2018-07-28T22:16:08.419Z,42.73
2018-07-28T22:18:37.098Z,33.17
2018-07-28T22:21:05.826Z,34.73
2018-07-28T22:23:34.493Z,33.03
2018-07-28T22:26:03.236Z,29.63
2018-07-28T22:28:31.909Z,36.30
2018-07-28T22:31:00.612Z,33.30
2018-07-28T22:33:29.274Z,34.40
2018-07-28T22:35:57.984Z,37.20
2018-07-28T22:38:26.668Z,41.23
2018-07-28T22:40:55.362Z,38.63
2018-07-28T22:43:24.034Z,44.30
2018-07-28T22:45:52.719Z,40.73
2018-07-28T22:48:21.387Z,37.40
2018-07-28T22:50:50.141Z,43.63
2018-07-28T22:53:18.819Z,46.23
2018-07-28T22:55:47.525Z,42.57
2018-07-28T22:58:16.203Z,42.27
2018-07-28T23:00:44.908Z,45.77
2018-07-28T23:03:13.658Z,38.77
2018-07-28T23:05:42.355Z,41.23
2018-07-28T23:08:11.088Z,44.67
2018-07-28T23:10:39.795Z,42.37
2018-07-28T23:13:08.465Z,40.80
2018-07-28T23:15:37.144Z,40.90
2018-07-28T23:18:05.869Z,47.03
2018-07-28T23:20:34.571Z,39.73
2018-07-28T23:23:03.221Z,51.43
2018-07-28T23:25:31.948Z,43.83
2018-07-28T23:28:00.585Z,48.63
2018-07-28T23:30:29.273Z,45.57
2018-07-28T23:32:57.966Z,45.70
2018-07-28T23:35:26.686Z,52.17
2018-07-28T23:37:55.419Z,50.23
2018-07-28T23:40:24.121Z,47.17
2018-07-28T23:42:52.823Z,45.23
2018-07-28T23:45:21.528Z,44.87
2018-07-28T23:47:50.221Z,49.00
2018-07-28T23:50:18.942Z,50.70
2018-07-28T23:52:47.632Z,55.03
2018-07-28T23:55:16.322Z,48.30
2018-07-28T23:57:45.036Z,53.83
